Disclaimer

Please do not use the information listed here in-flight or in-navigation, as they are not provided to us by the airports but are provided by volunteers, so they might be outdated.

Search


Regions


Airport information page

Radio informations:
OPERA TWR - 129.0 MHz

Airport informations:
Latitude: 47° 07' 22.30" N
Longitude: 020° 14' 07.80" E
Elevation: 322 feet - 98 meters
Operating hours: 24 hour operations
Operating agency: Military
Timezone: UTC+1(+2DT) - Last Sunday in March to last Sunday in October
Fuel: N/A

Runway information:
02/20 - 6562 x 229 feet< - >2000 x 70 meters

Recent METARs:
LHSN 181845Z 03004KT CAVOK 04/M03 Q1018 NOSIG RMK BLU
LHSN 181915Z 04006KT CAVOK 05/M03 Q1018 NOSIG RMK BLU
LHSN 181945Z 04006KT CAVOK 04/M03 Q1018 NOSIG RMK BLU

Airport on the map: